createdAt,value
2022-12-09T00:00:45.662Z,2.41
2022-12-09T00:03:48.227Z,2.39
2022-12-09T00:06:50.577Z,2.28
2022-12-09T00:09:52.693Z,2.34
2022-12-09T00:12:56.230Z,2.44
2022-12-09T00:15:58.549Z,2.40
2022-12-09T00:19:00.985Z,2.54
2022-12-09T00:22:03.172Z,2.48
2022-12-09T00:25:05.703Z,2.34
2022-12-09T00:28:07.906Z,2.22
2022-12-09T00:31:13.680Z,2.20
2022-12-09T00:34:16.132Z,2.36
2022-12-09T00:37:18.587Z,2.46
2022-12-09T00:40:20.786Z,2.37
2022-12-09T00:43:23.115Z,2.30
2022-12-09T00:46:25.433Z,2.38
2022-12-09T00:49:27.644Z,2.39
2022-12-09T00:52:29.920Z,2.50
2022-12-09T00:55:32.420Z,2.21
2022-12-09T00:58:34.744Z,2.15
2022-12-09T01:01:37.333Z,2.00
2022-12-09T01:04:39.821Z,2.01
2022-12-09T01:07:42.193Z,1.95
2022-12-09T01:10:45.305Z,2.14
2022-12-09T01:13:48.464Z,2.23
2022-12-09T01:16:50.844Z,2.14
2022-12-09T01:19:53.189Z,2.02
2022-12-09T01:22:55.596Z,2.13
2022-12-09T01:25:58.029Z,2.06
2022-12-09T01:29:00.422Z,2.02
2022-12-09T01:32:02.810Z,2.23
2022-12-09T01:35:05.525Z,2.36
2022-12-09T01:38:07.952Z,2.31
2022-12-09T01:41:10.613Z,2.26
2022-12-09T01:44:26.663Z,2.37
2022-12-09T01:47:29.175Z,2.30
2022-12-09T01:50:34.016Z,2.37
2022-12-09T01:53:37.993Z,2.24
2022-12-09T01:56:40.982Z,2.36
2022-12-09T01:59:43.704Z,2.47
2022-12-09T02:02:48.081Z,2.53
2022-12-09T02:05:50.479Z,2.64
2022-12-09T02:08:52.976Z,2.46
2022-12-09T02:12:14.261Z,2.51
2022-12-09T02:15:28.536Z,2.57
2022-12-09T02:18:30.909Z,2.52
2022-12-09T02:21:38.867Z,2.61
2022-12-09T02:24:46.393Z,2.52
2022-12-09T02:28:11.023Z,2.46
2022-12-09T02:31:28.309Z,2.39
2022-12-09T02:34:33.020Z,2.50
2022-12-09T02:37:42.809Z,2.33
2022-12-09T02:40:55.804Z,2.42
2022-12-09T02:44:10.197Z,2.36
2022-12-09T02:47:14.722Z,2.37
2022-12-09T02:50:21.023Z,2.37
2022-12-09T02:53:24.632Z,2.50
2022-12-09T02:56:27.233Z,2.40
2022-12-09T02:59:29.600Z,2.52
2022-12-09T03:02:35.425Z,2.48
2022-12-09T03:05:50.258Z,2.35
2022-12-09T03:08:52.547Z,2.63
2022-12-09T03:11:56.299Z,2.51
2022-12-09T03:14:59.046Z,2.42
2022-12-09T03:18:04.249Z,2.38
2022-12-09T03:21:07.223Z,2.36
2022-12-09T03:24:10.950Z,2.35
2022-12-09T03:27:17.690Z,2.38
2022-12-09T03:30:20.031Z,2.34
2022-12-09T03:33:23.573Z,2.14
2022-12-09T03:36:30.095Z,2.10
2022-12-09T03:39:35.106Z,2.37
2022-12-09T03:42:42.900Z,2.34
2022-12-09T03:45:45.709Z,2.21
2022-12-09T03:48:48.346Z,2.11
2022-12-09T03:52:24.749Z,2.26
2022-12-09T03:55:34.965Z,2.17
2022-12-09T03:58:38.722Z,2.19
2022-12-09T04:01:42.933Z,2.14
2022-12-09T04:04:45.330Z,1.96
2022-12-09T04:07:47.875Z,1.87
2022-12-09T04:10:50.112Z,1.82
2022-12-09T04:13:52.748Z,1.94
2022-12-09T04:16:55.332Z,1.99
2022-12-09T04:19:57.592Z,2.04
2022-12-09T04:22:59.774Z,2.08
2022-12-09T04:26:02.686Z,2.08
2022-12-09T04:29:05.018Z,2.30
2022-12-09T04:32:07.986Z,2.41
2022-12-09T04:35:10.635Z,2.34
2022-12-09T04:38:13.030Z,2.14
2022-12-09T04:41:16.236Z,2.06
2022-12-09T04:44:18.778Z,1.98
2022-12-09T04:47:21.141Z,2.13
2022-12-09T04:50:23.540Z,2.17
2022-12-09T04:53:26.732Z,2.17
2022-12-09T04:56:28.907Z,2.04
2022-12-09T04:59:31.715Z,1.90
2022-12-09T05:02:34.244Z,1.90
2022-12-09T05:05:40.942Z,1.94
2022-12-09T05:08:43.944Z,2.00
2022-12-09T05:11:46.323Z,2.05
2022-12-09T05:14:48.512Z,1.99
2022-12-09T05:17:50.759Z,2.00
2022-12-09T05:20:53.013Z,2.09
2022-12-09T05:23:55.292Z,1.91
2022-12-09T05:26:57.621Z,1.87
2022-12-09T05:30:00.075Z,1.84
2022-12-09T05:33:02.807Z,1.87
2022-12-09T05:36:08.814Z,1.83
2022-12-09T05:39:11.063Z,1.78
2022-12-09T05:42:13.425Z,1.87
2022-12-09T05:45:16.138Z,2.07
2022-12-09T05:48:18.699Z,2.21
2022-12-09T05:51:21.122Z,2.27
2022-12-09T05:54:23.357Z,2.51
2022-12-09T05:57:26.287Z,2.45
2022-12-09T06:00:28.621Z,2.54
2022-12-09T06:03:31.097Z,2.62
2022-12-09T06:06:34.181Z,2.51
2022-12-09T06:09:37.081Z,2.55
2022-12-09T06:12:39.338Z,2.53
2022-12-09T06:15:41.642Z,2.36
2022-12-09T06:18:44.439Z,2.39
2022-12-09T06:21:46.770Z,2.29
2022-12-09T06:24:52.762Z,2.21
2022-12-09T06:27:59.059Z,2.10
2022-12-09T06:31:01.689Z,2.08
2022-12-09T06:34:05.454Z,1.98
2022-12-09T06:37:08.098Z,1.85
2022-12-09T06:40:11.119Z,1.83
2022-12-09T06:43:13.468Z,1.96
2022-12-09T06:46:23.825Z,2.01
2022-12-09T06:49:26.443Z,2.08
2022-12-09T06:52:29.387Z,2.05
2022-12-09T06:55:31.726Z,2.08
2022-12-09T06:58:34.534Z,2.16
2022-12-09T07:01:38.501Z,2.12
2022-12-09T07:04:41.432Z,2.19
2022-12-09T07:07:44.323Z,2.17
2022-12-09T07:10:50.301Z,2.25
2022-12-09T07:13:55.597Z,2.33
2022-12-09T07:16:58.186Z,2.47
2022-12-09T07:20:06.677Z,2.50
2022-12-09T07:23:10.180Z,2.50
2022-12-09T07:26:13.125Z,2.54
2022-12-09T07:29:15.952Z,2.62
2022-12-09T07:32:18.522Z,2.75
2022-12-09T07:35:20.914Z,2.73
2022-12-09T07:38:24.382Z,2.76
2022-12-09T07:41:27.412Z,2.83
2022-12-09T07:44:29.955Z,2.81
2022-12-09T07:47:32.624Z,2.78
2022-12-09T07:50:35.751Z,2.85
2022-12-09T07:53:39.232Z,2.90
2022-12-09T07:56:42.172Z,2.92
2022-12-09T07:59:44.610Z,2.97
2022-12-09T08:02:47.220Z,2.94
2022-12-09T08:05:53.682Z,2.94
2022-12-09T08:09:01.123Z,2.95
2022-12-09T08:12:04.452Z,3.06
2022-12-09T08:15:07.838Z,3.06
2022-12-09T08:18:10.336Z,3.07
2022-12-09T08:21:16.787Z,3.18
2022-12-09T08:24:19.198Z,3.26
2022-12-09T08:27:21.411Z,3.30
2022-12-09T08:30:24.211Z,3.23
2022-12-09T08:33:26.926Z,3.26
2022-12-09T08:36:29.305Z,3.12
2022-12-09T08:39:31.790Z,3.23
2022-12-09T08:42:34.106Z,3.05
2022-12-09T08:45:40.814Z,3.18
2022-12-09T08:48:43.770Z,3.05
2022-12-09T08:51:48.295Z,2.98
2022-12-09T08:54:50.684Z,3.13
2022-12-09T08:57:53.173Z,3.01
2022-12-09T09:00:55.928Z,3.08
2022-12-09T09:04:03.792Z,2.95
2022-12-09T09:07:06.485Z,3.04
2022-12-09T09:10:10.036Z,2.97
2022-12-09T09:13:12.812Z,3.10
2022-12-09T09:16:18.483Z,3.13
2022-12-09T09:19:25.696Z,3.18
2022-12-09T09:22:29.314Z,2.95
2022-12-09T09:25:31.821Z,3.08
2022-12-09T09:28:34.113Z,2.97
2022-12-09T09:31:36.643Z,3.08
2022-12-09T09:34:39.336Z,3.00
2022-12-09T09:37:41.727Z,3.00
2022-12-09T09:40:44.450Z,3.03
2022-12-09T09:43:47.184Z,3.04
2022-12-09T09:46:51.695Z,3.02
2022-12-09T09:50:32.786Z,3.13
2022-12-09T09:53:36.398Z,3.09
2022-12-09T09:56:45.781Z,3.27
2022-12-09T10:00:11.449Z,3.20
2022-12-09T10:03:37.227Z,3.18
2022-12-09T10:06:50.000Z,3.38
2022-12-09T10:10:20.495Z,3.37
2022-12-09T10:13:47.669Z,3.64
2022-12-09T10:17:01.444Z,3.51
2022-12-09T10:20:12.629Z,3.30
2022-12-09T10:23:16.454Z,3.28
2022-12-09T10:26:37.453Z,3.40
2022-12-09T10:29:58.341Z,3.42
2022-12-09T10:33:00.701Z,3.22
2022-12-09T10:36:04.199Z,3.54
2022-12-09T10:39:06.794Z,3.56
2022-12-09T10:42:34.636Z,3.50
2022-12-09T10:46:17.177Z,3.08
2022-12-09T10:49:22.724Z,2.90
2022-12-09T10:52:29.822Z,3.09
2022-12-09T10:55:37.353Z,2.99
2022-12-09T10:58:39.982Z,2.93
2022-12-09T11:01:48.277Z,2.93
2022-12-09T11:04:51.391Z,2.86
2022-12-09T11:07:56.240Z,2.82
2022-12-09T11:10:58.720Z,2.84
2022-12-09T11:14:02.188Z,2.85
2022-12-09T11:17:22.620Z,2.74
2022-12-09T11:20:28.468Z,2.79
2022-12-09T11:23:31.164Z,2.80
2022-12-09T11:26:39.347Z,2.85
2022-12-09T11:29:41.760Z,2.87
2022-12-09T11:33:16.380Z,2.88
2022-12-09T11:36:29.847Z,2.90
2022-12-09T11:39:35.095Z,2.79
2022-12-09T11:42:37.368Z,2.75
2022-12-09T11:45:40.302Z,2.56
2022-12-09T11:49:17.795Z,2.57
2022-12-09T11:52:19.894Z,2.53
2022-12-09T11:55:23.922Z,2.57
2022-12-09T11:58:35.349Z,2.73
2022-12-09T12:02:06.538Z,2.62
2022-12-09T12:05:23.309Z,2.63
2022-12-09T12:08:31.956Z,2.70
2022-12-09T12:11:42.123Z,2.68
2022-12-09T12:14:44.408Z,2.57
2022-12-09T12:17:50.340Z,2.59
2022-12-09T12:20:59.300Z,2.61
2022-12-09T12:24:13.478Z,2.60
2022-12-09T12:27:42.028Z,2.63
2022-12-09T12:30:52.678Z,2.75
2022-12-09T12:34:24.520Z,2.73
2022-12-09T12:37:47.570Z,2.83
2022-12-09T12:40:59.026Z,2.75
2022-12-09T12:44:55.031Z,2.89
2022-12-09T12:48:04.577Z,2.88
2022-12-09T12:51:24.536Z,3.02
2022-12-09T12:54:48.337Z,2.84
2022-12-09T12:58:06.032Z,2.92
2022-12-09T13:01:35.150Z,2.97
2022-12-09T13:04:43.869Z,2.97
2022-12-09T13:08:18.289Z,3.00
2022-12-09T13:11:26.275Z,3.04
2022-12-09T13:14:35.779Z,3.06
2022-12-09T13:17:38.650Z,2.99
2022-12-09T13:20:47.448Z,2.83
2022-12-09T13:24:02.093Z,2.92
2022-12-09T13:27:11.120Z,3.01
2022-12-09T13:30:20.991Z,2.98
2022-12-09T13:33:54.119Z,2.91
2022-12-09T13:36:56.539Z,3.06
2022-12-09T13:39:58.783Z,3.02
2022-12-09T13:43:03.997Z,3.00
2022-12-09T13:46:06.248Z,3.06
2022-12-09T13:49:24.581Z,2.94
2022-12-09T13:52:48.560Z,3.01
2022-12-09T13:56:14.002Z,3.18
2022-12-09T13:59:31.346Z,3.22
2022-12-09T14:03:05.522Z,3.26
2022-12-09T14:06:19.990Z,3.19
2022-12-09T14:09:40.668Z,3.21
2022-12-09T14:12:57.898Z,3.15
2022-12-09T14:16:10.428Z,3.08
2022-12-09T14:19:51.269Z,3.05
2022-12-09T14:23:08.657Z,2.98
2022-12-09T14:26:10.901Z,3.17
2022-12-09T14:29:53.296Z,3.13
2022-12-09T14:32:56.272Z,3.18
2022-12-09T14:36:13.351Z,3.15
2022-12-09T14:39:25.210Z,3.14
2022-12-09T14:42:32.037Z,3.12
2022-12-09T14:45:48.171Z,3.12
2022-12-09T14:48:58.820Z,3.05
2022-12-09T14:52:04.559Z,3.06
2022-12-09T14:55:08.957Z,3.13
2022-12-09T14:58:19.197Z,3.06
2022-12-09T15:01:21.480Z,3.09
2022-12-09T15:04:26.535Z,2.98
2022-12-09T15:07:33.298Z,2.99
2022-12-09T15:10:36.414Z,2.88
2022-12-09T15:13:41.747Z,2.94
2022-12-09T15:16:47.739Z,2.76
2022-12-09T15:20:00.302Z,2.82
2022-12-09T15:23:25.200Z,2.84
2022-12-09T15:26:30.913Z,2.76
2022-12-09T15:29:34.341Z,2.92
2022-12-09T15:32:39.184Z,2.90
2022-12-09T15:35:42.666Z,2.89
2022-12-09T15:39:11.343Z,2.98
2022-12-09T15:42:18.104Z,2.97
2022-12-09T15:45:23.881Z,3.03
2022-12-09T15:48:35.115Z,2.98
2022-12-09T15:51:38.233Z,2.90
2022-12-09T15:54:42.112Z,3.07
2022-12-09T15:57:44.853Z,3.11
2022-12-09T16:00:49.205Z,3.04
2022-12-09T16:03:53.053Z,3.08
2022-12-09T16:06:56.992Z,3.02
2022-12-09T16:10:04.440Z,2.99
2022-12-09T16:13:14.584Z,3.05
2022-12-09T16:16:55.228Z,2.99
2022-12-09T16:19:57.983Z,3.08
2022-12-09T16:23:02.132Z,3.08
2022-12-09T16:26:07.259Z,3.02
2022-12-09T16:29:29.275Z,3.01
2022-12-09T16:32:34.346Z,3.06
2022-12-09T16:35:40.265Z,3.13
2022-12-09T16:39:08.175Z,3.15
2022-12-09T16:42:42.404Z,3.21
2022-12-09T16:45:49.701Z,3.27
2022-12-09T16:48:52.079Z,3.16
2022-12-09T16:51:54.489Z,3.25
2022-12-09T16:54:56.855Z,3.30
2022-12-09T16:58:00.076Z,3.30
2022-12-09T17:01:03.892Z,3.45
2022-12-09T17:04:32.534Z,3.43
2022-12-09T17:07:34.738Z,3.53
2022-12-09T17:10:37.062Z,3.38
2022-12-09T17:13:39.423Z,3.55
2022-12-09T17:16:41.847Z,3.65
2022-12-09T17:19:44.441Z,3.65
2022-12-09T17:22:46.679Z,3.70
2022-12-09T17:26:04.935Z,3.69
2022-12-09T17:29:07.287Z,3.71
2022-12-09T17:32:09.800Z,3.69
2022-12-09T17:35:16.051Z,3.63
2022-12-09T17:38:18.872Z,3.64
2022-12-09T17:41:23.702Z,3.59
2022-12-09T17:44:27.768Z,3.49
2022-12-09T17:47:30.232Z,3.52
2022-12-09T17:50:33.061Z,3.42
2022-12-09T17:53:39.644Z,3.51
2022-12-09T17:56:41.938Z,3.28
2022-12-09T17:59:44.563Z,3.12
2022-12-09T18:02:47.727Z,3.24
2022-12-09T18:05:49.948Z,3.33
2022-12-09T18:08:52.810Z,3.38
2022-12-09T18:11:55.089Z,3.27
2022-12-09T18:14:57.345Z,3.41
2022-12-09T18:17:59.893Z,3.24
2022-12-09T18:21:03.230Z,3.30
2022-12-09T18:24:05.605Z,3.36
2022-12-09T18:27:08.130Z,3.29
2022-12-09T18:30:10.966Z,3.26
2022-12-09T18:33:13.107Z,3.14
2022-12-09T18:36:21.804Z,3.06
2022-12-09T18:39:24.095Z,3.15
2022-12-09T18:42:27.617Z,3.34
2022-12-09T18:45:29.837Z,3.32
2022-12-09T18:48:32.321Z,3.37
2022-12-09T18:51:36.470Z,3.41
2022-12-09T18:54:39.225Z,3.38
2022-12-09T18:57:41.985Z,3.34
2022-12-09T19:00:44.415Z,3.58
2022-12-09T19:03:48.099Z,3.72
2022-12-09T19:06:54.916Z,3.67
2022-12-09T19:09:58.542Z,3.71
2022-12-09T19:13:02.352Z,3.70
2022-12-09T19:16:06.204Z,3.70
2022-12-09T19:19:12.890Z,3.77
2022-12-09T19:22:15.695Z,3.89
2022-12-09T19:25:18.388Z,3.98
2022-12-09T19:28:21.518Z,3.94
2022-12-09T19:31:32.718Z,4.03
2022-12-09T19:34:35.994Z,4.16
2022-12-09T19:37:39.435Z,4.26
2022-12-09T19:40:42.341Z,4.34
2022-12-09T19:43:45.390Z,4.30
2022-12-09T19:46:47.820Z,4.30
2022-12-09T19:49:51.174Z,4.30
2022-12-09T19:52:54.096Z,4.35
2022-12-09T19:56:00.331Z,4.31
2022-12-09T19:59:03.511Z,4.34
2022-12-09T20:02:08.521Z,4.40
2022-12-09T20:05:11.260Z,4.23
2022-12-09T20:08:13.779Z,4.22
2022-12-09T20:11:21.847Z,4.24
2022-12-09T20:14:24.342Z,4.14
2022-12-09T20:17:26.725Z,4.12
2022-12-09T20:20:29.108Z,4.12
2022-12-09T20:23:31.618Z,4.17
2022-12-09T20:26:35.982Z,3.97
2022-12-09T20:29:38.659Z,4.05
2022-12-09T20:32:41.187Z,4.09
2022-12-09T20:35:43.609Z,4.07
2022-12-09T20:38:54.581Z,4.16
2022-12-09T20:41:57.048Z,4.22
2022-12-09T20:44:59.442Z,4.34
2022-12-09T20:48:01.928Z,4.45
2022-12-09T20:51:10.513Z,4.55
2022-12-09T20:54:13.543Z,4.52
2022-12-09T20:57:16.099Z,4.48
2022-12-09T21:00:18.944Z,4.45
2022-12-09T21:03:22.072Z,4.48
2022-12-09T21:06:26.965Z,4.61
2022-12-09T21:09:30.267Z,4.44
2022-12-09T21:12:33.908Z,4.47
2022-12-09T21:15:36.811Z,4.36
2022-12-09T21:18:39.267Z,4.48
2022-12-09T21:21:43.749Z,4.49
2022-12-09T21:24:47.310Z,4.55
2022-12-09T21:27:49.558Z,4.68
2022-12-09T21:30:52.187Z,4.85
2022-12-09T21:33:56.480Z,5.02
2022-12-09T21:36:58.873Z,5.19
2022-12-09T21:40:01.288Z,5.37
2022-12-09T21:43:03.703Z,5.62
2022-12-09T21:46:18.892Z,5.70
2022-12-09T21:49:21.441Z,5.79
2022-12-09T21:52:23.609Z,5.76
2022-12-09T21:55:25.813Z,5.48
2022-12-09T21:58:30.260Z,5.35
2022-12-09T22:01:38.184Z,5.11
2022-12-09T22:04:40.388Z,5.12
2022-12-09T22:07:42.573Z,5.04
2022-12-09T22:10:44.770Z,4.99
2022-12-09T22:13:47.159Z,4.81
2022-12-09T22:16:49.417Z,4.64
2022-12-09T22:20:13.579Z,4.69
2022-12-09T22:23:13.771Z,4.62
2022-12-09T22:26:19.132Z,4.81
2022-12-09T22:29:21.366Z,4.70
2022-12-09T22:32:23.665Z,4.60
2022-12-09T22:35:25.830Z,4.52
2022-12-09T22:38:27.951Z,4.52
2022-12-09T22:41:30.137Z,4.56
2022-12-09T22:44:32.514Z,4.58
2022-12-09T22:47:34.709Z,4.58
2022-12-09T22:50:36.890Z,4.49
2022-12-09T22:53:39.171Z,4.46
2022-12-09T22:56:42.858Z,4.51
2022-12-09T22:59:45.048Z,4.52
2022-12-09T23:02:47.282Z,4.62
2022-12-09T23:05:49.507Z,4.70
2022-12-09T23:08:51.806Z,4.85
2022-12-09T23:11:54.047Z,4.81
2022-12-09T23:14:56.261Z,4.91
2022-12-09T23:17:58.417Z,4.89
2022-12-09T23:21:11.915Z,5.04
2022-12-09T23:24:21.047Z,5.17
2022-12-09T23:27:26.573Z,5.04
2022-12-09T23:30:28.735Z,5.12
2022-12-09T23:33:32.321Z,5.18
2022-12-09T23:36:37.059Z,5.16
2022-12-09T23:39:39.299Z,5.20
2022-12-09T23:42:41.476Z,5.12
2022-12-09T23:45:43.715Z,5.08
2022-12-09T23:48:46.743Z,5.13
2022-12-09T23:51:49.003Z,5.15
2022-12-09T23:54:51.249Z,5.18
2022-12-09T23:57:53.378Z,5.13
